sensor_id;sensor_type;location;lat;lon;timestamp;pressure;altitude;pressure_sealevel;temperature;humidity
10806;BME280;5455;53.224;6.000;2023-02-22T00:01:41;101582.84;;;7.85;100.00
10806;BME280;5455;53.224;6.000;2023-02-22T00:04:17;101570.09;;;7.81;100.00
10806;BME280;5455;53.224;6.000;2023-02-22T00:06:47;101579.28;;;7.85;100.00
10806;BME280;5455;53.224;6.000;2023-02-22T00:09:15;101575.59;;;7.89;100.00
10806;BME280;5455;53.224;6.000;2023-02-22T00:11:47;101567.03;;;7.91;100.00
10806;BME280;5455;53.224;6.000;2023-02-22T00:14:14;101565.91;;;7.92;100.00
10806;BME280;5455;53.224;6.000;2023-02-22T00:16:43;101557.66;;;7.92;100.00
10806;BME280;5455;53.224;6.000;2023-02-22T00:19:10;101555.56;;;7.89;100.00
10806;BME280;5455;53.224;6.000;2023-02-22T00:21:37;101548.13;;;7.89;100.00
10806;BME280;5455;53.224;6.000;2023-02-22T00:24:04;101561.06;;;7.89;100.00
10806;BME280;5455;53.224;6.000;2023-02-22T00:26:51;101555.09;;;7.87;100.00
10806;BME280;5455;53.224;6.000;2023-02-22T00:29:18;101553.13;;;7.87;100.00
10806;BME280;5455;53.224;6.000;2023-02-22T00:31:45;101548.63;;;7.83;100.00
10806;BME280;5455;53.224;6.000;2023-02-22T00:34:13;101548.78;;;7.78;100.00
10806;BME280;5455;53.224;6.000;2023-02-22T00:36:49;101554.59;;;7.76;100.00
10806;BME280;5455;53.224;6.000;2023-02-22T00:39:16;101547.97;;;7.77;100.00
10806;BME280;5455;53.224;6.000;2023-02-22T00:41:43;101547.97;;;7.77;100.00
10806;BME280;5455;53.224;6.000;2023-02-22T00:44:10;101535.06;;;7.78;100.00
10806;BME280;5455;53.224;6.000;2023-02-22T00:46:38;101532.31;;;7.78;100.00
10806;BME280;5455;53.224;6.000;2023-02-22T00:49:08;101534.56;;;7.75;100.00
10806;BME280;5455;53.224;6.000;2023-02-22T00:51:35;101525.69;;;7.78;100.00
10806;BME280;5455;53.224;6.000;2023-02-22T00:54:02;101528.13;;;7.80;100.00
10806;BME280;5455;53.224;6.000;2023-02-22T00:56:33;101521.34;;;7.78;100.00
10806;BME280;5455;53.224;6.000;2023-02-22T00:59:02;101521.16;;;7.83;100.00
10806;BME280;5455;53.224;6.000;2023-02-22T01:01:30;101523.25;;;7.86;100.00
10806;BME280;5455;53.224;6.000;2023-02-22T01:03:57;101516.16;;;7.85;100.00
10806;BME280;5455;53.224;6.000;2023-02-22T01:06:25;101520.03;;;7.84;100.00
10806;BME280;5455;53.224;6.000;2023-02-22T01:08:52;101516.66;;;7.87;100.00
10806;BME280;5455;53.224;6.000;2023-02-22T01:11:19;101516.31;;;7.88;100.00
10806;BME280;5455;53.224;6.000;2023-02-22T01:13:47;101515.34;;;7.84;100.00
10806;BME280;5455;53.224;6.000;2023-02-22T01:16:15;101510.03;;;7.79;100.00
10806;BME280;5455;53.224;6.000;2023-02-22T01:18:42;101517.94;;;7.81;100.00
10806;BME280;5455;53.224;6.000;2023-02-22T01:21:09;101512.94;;;7.83;100.00
10806;BME280;5455;53.224;6.000;2023-02-22T01:23:36;101506.31;;;7.84;100.00
10806;BME280;5455;53.224;6.000;2023-02-22T01:26:04;101509.53;;;7.86;100.00
10806;BME280;5455;53.224;6.000;2023-02-22T01:28:32;101512.94;;;7.83;100.00
10806;BME280;5455;53.224;6.000;2023-02-22T01:31:00;101514.06;;;7.82;100.00
10806;BME280;5455;53.224;6.000;2023-02-22T01:33:30;101510.19;;;7.83;100.00
10806;BME280;5455;53.224;6.000;2023-02-22T01:35:59;101506.44;;;7.87;100.00
10806;BME280;5455;53.224;6.000;2023-02-22T01:38:26;101504.84;;;7.86;100.00
10806;BME280;5455;53.224;6.000;2023-02-22T01:40:53;101504.03;;;7.86;100.00
10806;BME280;5455;53.224;6.000;2023-02-22T01:43:26;101497.75;;;7.85;100.00
10806;BME280;5455;53.224;6.000;2023-02-22T01:46:01;101501.59;;;7.84;100.00
10806;BME280;5455;53.224;6.000;2023-02-22T01:48:39;101491.28;;;7.81;100.00
10806;BME280;5455;53.224;6.000;2023-02-22T01:51:14;101496.28;;;7.79;100.00
10806;BME280;5455;53.224;6.000;2023-02-22T01:56:22;101486.59;;;7.82;100.00
10806;BME280;5455;53.224;6.000;2023-02-22T01:59:02;101493.25;;;7.81;100.00
10806;BME280;5455;53.224;6.000;2023-02-22T02:01:34;101489.03;;;7.83;100.00
10806;BME280;5455;53.224;6.000;2023-02-22T02:04:05;101484.34;;;7.84;100.00
10806;BME280;5455;53.224;6.000;2023-02-22T02:06:34;101486.75;;;7.85;100.00
10806;BME280;5455;53.224;6.000;2023-02-22T02:09:19;101491.94;;;7.87;100.00
10806;BME280;5455;53.224;6.000;2023-02-22T02:11:52;101485.63;;;7.86;100.00
10806;BME280;5455;53.224;6.000;2023-02-22T02:14:20;101477.72;;;7.85;100.00
10806;BME280;5455;53.224;6.000;2023-02-22T02:16:49;101479.66;;;7.84;100.00
10806;BME280;5455;53.224;6.000;2023-02-22T02:22:53;101477.88;;;7.80;100.00
10806;BME280;5455;53.224;6.000;2023-02-22T02:34:42;101470.47;;;7.80;100.00
10806;BME280;5455;53.224;6.000;2023-02-22T02:37:17;101467.38;;;7.82;100.00
10806;BME280;5455;53.224;6.000;2023-02-22T02:39:52;101466.56;;;7.81;100.00
10806;BME280;5455;53.224;6.000;2023-02-22T02:42:27;101464.63;;;7.82;100.00
10806;BME280;5455;53.224;6.000;2023-02-22T02:45:16;101459.00;;;7.78;100.00
10806;BME280;5455;53.224;6.000;2023-02-22T02:47:51;101455.94;;;7.80;100.00
10806;BME280;5455;53.224;6.000;2023-02-22T02:50:31;101448.81;;;7.78;100.00
10806;BME280;5455;53.224;6.000;2023-02-22T02:53:01;101446.06;;;7.78;100.00
10806;BME280;5455;53.224;6.000;2023-02-22T02:55:31;101441.41;;;7.79;100.00
10806;BME280;5455;53.224;6.000;2023-02-22T02:58:04;101440.28;;;7.80;100.00
10806;BME280;5455;53.224;6.000;2023-02-22T03:00:35;101433.63;;;7.81;100.00
10806;BME280;5455;53.224;6.000;2023-02-22T03:06:01;101431.03;;;7.85;100.00
10806;BME280;5455;53.224;6.000;2023-02-22T03:09:11;101427.81;;;7.83;100.00
10806;BME280;5455;53.224;6.000;2023-02-22T03:11:52;101427.03;;;7.82;100.00
10806;BME280;5455;53.224;6.000;2023-02-22T03:17:27;101422.66;;;7.81;100.00
10806;BME280;5455;53.224;6.000;2023-02-22T03:20:11;101416.03;;;7.82;100.00
10806;BME280;5455;53.224;6.000;2023-02-22T03:22:50;101421.53;;;7.82;100.00
10806;BME280;5455;53.224;6.000;2023-02-22T03:25:26;101420.72;;;7.82;100.00
10806;BME280;5455;53.224;6.000;2023-02-22T03:28:02;101419.78;;;7.78;100.00
10806;BME280;5455;53.224;6.000;2023-02-22T03:30:35;101417.50;;;7.80;100.00
10806;BME280;5455;53.224;6.000;2023-02-22T03:33:14;101411.19;;;7.79;100.00
10806;BME280;5455;53.224;6.000;2023-02-22T03:35:54;101410.38;;;7.78;100.00
10806;BME280;5455;53.224;6.000;2023-02-22T03:38:26;101404.91;;;7.78;100.00
10806;BME280;5455;53.224;6.000;2023-02-22T03:40:57;101410.53;;;7.82;100.00
10806;BME280;5455;53.224;6.000;2023-02-22T03:43:30;101410.88;;;7.81;100.00
10806;BME280;5455;53.224;6.000;2023-02-22T03:46:03;101405.41;;;7.81;100.00
10806;BME280;5455;53.224;6.000;2023-02-22T03:51:05;101394.06;;;7.82;100.00
10806;BME280;5455;53.224;6.000;2023-02-22T03:53:33;101391.00;;;7.84;100.00
10806;BME280;5455;53.224;6.000;2023-02-22T03:56:06;101390.38;;;7.87;100.00
10806;BME280;5455;53.224;6.000;2023-02-22T03:58:37;101389.72;;;7.90;100.00
10806;BME280;5455;53.224;6.000;2023-02-22T04:01:06;101389.22;;;7.88;100.00
10806;BME280;5455;53.224;6.000;2023-02-22T04:03:33;101386.81;;;7.86;100.00
10806;BME280;5455;53.224;6.000;2023-02-22T04:06:00;101383.72;;;7.88;100.00
10806;BME280;5455;53.224;6.000;2023-02-22T04:08:28;101382.13;;;7.87;100.00
10806;BME280;5455;53.224;6.000;2023-02-22T04:10:57;101374.53;;;7.84;100.00
10806;BME280;5455;53.224;6.000;2023-02-22T04:13:31;101376.78;;;7.82;100.00
10806;BME280;5455;53.224;6.000;2023-02-22T04:15:59;101380.69;;;7.81;100.00
10806;BME280;5455;53.224;6.000;2023-02-22T04:18:26;101377.13;;;7.80;100.00
10806;BME280;5455;53.224;6.000;2023-02-22T04:20:54;101378.91;;;7.76;100.00
10806;BME280;5455;53.224;6.000;2023-02-22T04:23:54;101379.72;;;7.76;100.00
10806;BME280;5455;53.224;6.000;2023-02-22T04:26:21;101367.13;;;7.75;100.00
10806;BME280;5455;53.224;6.000;2023-02-22T04:28:53;101373.88;;;7.78;100.00
10806;BME280;5455;53.224;6.000;2023-02-22T04:31:22;101368.59;;;7.73;100.00
10806;BME280;5455;53.224;6.000;2023-02-22T04:33:53;101377.31;;;7.75;100.00
10806;BME280;5455;53.224;6.000;2023-02-22T04:36:27;101377.63;;;7.73;100.00
10806;BME280;5455;53.224;6.000;2023-02-22T04:38:59;101372.59;;;7.75;100.00
10806;BME280;5455;53.224;6.000;2023-02-22T04:41:27;101375.53;;;7.70;100.00
10806;BME280;5455;53.224;6.000;2023-02-22T04:43:54;101372.31;;;7.68;100.00
10806;BME280;5455;53.224;6.000;2023-02-22T04:46:23;101371.16;;;7.69;100.00
10806;BME280;5455;53.224;6.000;2023-02-22T04:48:52;101373.25;;;7.72;100.00
10806;BME280;5455;53.224;6.000;2023-02-22T04:51:22;101368.13;;;7.71;100.00
10806;BME280;5455;53.224;6.000;2023-02-22T04:53:59;101376.19;;;7.67;100.00
10806;BME280;5455;53.224;6.000;2023-02-22T04:56:26;101374.56;;;7.66;100.00
10806;BME280;5455;53.224;6.000;2023-02-22T04:58:53;101360.84;;;7.66;100.00
10806;BME280;5455;53.224;6.000;2023-02-22T05:01:20;101369.91;;;7.67;100.00
10806;BME280;5455;53.224;6.000;2023-02-22T05:03:47;101367.81;;;7.64;100.00
10806;BME280;5455;53.224;6.000;2023-02-22T05:06:16;101367.34;;;7.62;100.00
10806;BME280;5455;53.224;6.000;2023-02-22T05:08:43;101370.38;;;7.60;100.00
10806;BME280;5455;53.224;6.000;2023-02-22T05:11:10;101360.88;;;7.58;100.00
10806;BME280;5455;53.224;6.000;2023-02-22T05:13:37;101360.56;;;7.59;100.00
10806;BME280;5455;53.224;6.000;2023-02-22T05:16:04;101353.59;;;7.62;100.00
10806;BME280;5455;53.224;6.000;2023-02-22T05:18:31;101352.63;;;7.58;100.00
10806;BME280;5455;53.224;6.000;2023-02-22T05:20:58;101353.78;;;7.57;100.00
10806;BME280;5455;53.224;6.000;2023-02-22T05:23:25;101347.66;;;7.60;100.00
10806;BME280;5455;53.224;6.000;2023-02-22T05:25:52;101351.19;;;7.60;100.00
10806;BME280;5455;53.224;6.000;2023-02-22T05:28:20;101346.84;;;7.59;100.00
10806;BME280;5455;53.224;6.000;2023-02-22T05:30:48;101343.94;;;7.56;100.00
10806;BME280;5455;53.224;6.000;2023-02-22T05:33:15;101341.03;;;7.52;100.00
10806;BME280;5455;53.224;6.000;2023-02-22T05:35:43;101341.66;;;7.58;100.00
10806;BME280;5455;53.224;6.000;2023-02-22T05:38:12;101333.78;;;7.56;100.00
10806;BME280;5455;53.224;6.000;2023-02-22T05:40:41;101336.00;;;7.54;100.00
10806;BME280;5455;53.224;6.000;2023-02-22T05:43:09;101332.34;;;7.50;100.00
10806;BME280;5455;53.224;6.000;2023-02-22T05:45:36;101334.25;;;7.50;100.00
10806;BME280;5455;53.224;6.000;2023-02-22T05:48:03;101325.22;;;7.49;100.00
10806;BME280;5455;53.224;6.000;2023-02-22T05:50:30;101327.50;;;7.47;100.00
10806;BME280;5455;53.224;6.000;2023-02-22T05:52:59;101328.97;;;7.45;100.00
10806;BME280;5455;53.224;6.000;2023-02-22T05:55:27;101315.56;;;7.43;100.00
10806;BME280;5455;53.224;6.000;2023-02-22T05:57:54;101322.31;;;7.46;100.00
10806;BME280;5455;53.224;6.000;2023-02-22T06:00:24;101313.28;;;7.45;100.00
10806;BME280;5455;53.224;6.000;2023-02-22T06:02:57;101311.03;;;7.47;100.00
10806;BME280;5455;53.224;6.000;2023-02-22T06:05:25;101301.66;;;7.48;100.00
10806;BME280;5455;53.224;6.000;2023-02-22T06:07:52;101310.53;;;7.45;100.00
10806;BME280;5455;53.224;6.000;2023-02-22T06:10:19;101311.34;;;7.46;100.00
10806;BME280;5455;53.224;6.000;2023-02-22T06:12:48;101301.66;;;7.48;100.00
10806;BME280;5455;53.224;6.000;2023-02-22T06:15:17;101294.72;;;7.42;100.00
10806;BME280;5455;53.224;6.000;2023-02-22T06:17:44;101302.31;;;7.45;100.00
10806;BME280;5455;53.224;6.000;2023-02-22T06:20:14;101299.44;;;7.42;100.00
10806;BME280;5455;53.224;6.000;2023-02-22T06:22:42;101302.97;;;7.42;100.00
10806;BME280;5455;53.224;6.000;2023-02-22T06:25:13;101298.63;;;7.41;100.00
10806;BME280;5455;53.224;6.000;2023-02-22T06:27:41;101301.38;;;7.41;100.00
10806;BME280;5455;53.224;6.000;2023-02-22T06:30:09;101296.03;;;7.36;100.00
10806;BME280;5455;53.224;6.000;2023-02-22T06:32:39;101297.50;;;7.34;100.00
10806;BME280;5455;53.224;6.000;2023-02-22T06:35:06;101303.78;;;7.34;100.00
10806;BME280;5455;53.224;6.000;2023-02-22T06:37:34;101302.19;;;7.33;100.00
10806;BME280;5455;53.224;6.000;2023-02-22T06:40:01;101296.38;;;7.35;100.00
10806;BME280;5455;53.224;6.000;2023-02-22T06:42:31;101290.91;;;7.35;100.00
10806;BME280;5455;53.224;6.000;2023-02-22T06:44:58;101292.81;;;7.34;100.00
10806;BME280;5455;53.224;6.000;2023-02-22T06:47:26;101294.28;;;7.32;100.00
10806;BME280;5455;53.224;6.000;2023-02-22T06:49:57;101288.66;;;7.28;100.00
10806;BME280;5455;53.224;6.000;2023-02-22T06:52:25;101284.63;;;7.26;100.00
10806;BME280;5455;53.224;6.000;2023-02-22T06:54:52;101287.38;;;7.26;100.00
10806;BME280;5455;53.224;6.000;2023-02-22T06:57:19;101276.06;;;7.18;100.00
10806;BME280;5455;53.224;6.000;2023-02-22T06:59:46;101289.78;;;7.18;100.00
10806;BME280;5455;53.224;6.000;2023-02-22T07:02:14;101288.97;;;7.18;100.00
10806;BME280;5455;53.224;6.000;2023-02-22T07:04:44;101280.94;;;7.13;100.00
10806;BME280;5455;53.224;6.000;2023-02-22T07:07:11;101289.16;;;7.13;100.00
10806;BME280;5455;53.224;6.000;2023-02-22T07:09:38;101292.38;;;7.15;100.00
10806;BME280;5455;53.224;6.000;2023-02-22T07:12:05;101276.41;;;7.17;100.00
10806;BME280;5455;53.224;6.000;2023-02-22T07:14:33;101285.13;;;7.19;100.00
10806;BME280;5455;53.224;6.000;2023-02-22T07:17:00;101275.25;;;7.18;100.00
10806;BME280;5455;53.224;6.000;2023-02-22T07:19:27;101279.63;;;7.19;100.00
10806;BME280;5455;53.224;6.000;2023-02-22T07:21:54;101286.72;;;7.20;100.00
10806;BME280;5455;53.224;6.000;2023-02-22T07:24:25;101282.84;;;7.21;100.00
10806;BME280;5455;53.224;6.000;2023-02-22T07:26:54;101275.13;;;7.23;100.00
10806;BME280;5455;53.224;6.000;2023-02-22T07:29:21;101281.53;;;7.27;100.00
10806;BME280;5455;53.224;6.000;2023-02-22T07:31:48;101282.03;;;7.29;100.00
10806;BME280;5455;53.224;6.000;2023-02-22T07:34:16;101286.22;;;7.35;100.00
10806;BME280;5455;53.224;6.000;2023-02-22T07:36:43;101279.28;;;7.38;100.00
10806;BME280;5455;53.224;6.000;2023-02-22T07:39:10;101275.41;;;7.39;100.00
10806;BME280;5455;53.224;6.000;2023-02-22T07:41:37;101280.09;;;7.38;100.00
10806;BME280;5455;53.224;6.000;2023-02-22T07:44:14;101268.28;;;7.38;100.00
10806;BME280;5455;53.224;6.000;2023-02-22T07:46:46;101280.72;;;7.35;100.00
10806;BME280;5455;53.224;6.000;2023-02-22T07:49:14;101277.50;;;7.33;100.00
10806;BME280;5455;53.224;6.000;2023-02-22T07:51:41;101277.84;;;7.32;100.00
10806;BME280;5455;53.224;6.000;2023-02-22T07:54:08;101278.31;;;7.34;100.00
10806;BME280;5455;53.224;6.000;2023-02-22T07:56:35;101286.53;;;7.34;100.00
10806;BME280;5455;53.224;6.000;2023-02-22T07:59:02;101287.50;;;7.38;100.00
10806;BME280;5455;53.224;6.000;2023-02-22T08:01:29;101287.16;;;7.48;100.00
10806;BME280;5455;53.224;6.000;2023-02-22T08:03:57;101289.25;;;7.51;100.00
10806;BME280;5455;53.224;6.000;2023-02-22T08:06:25;101282.94;;;7.50;100.00
10806;BME280;5455;53.224;6.000;2023-02-22T08:08:53;101287.78;;;7.53;100.00
10806;BME280;5455;53.224;6.000;2023-02-22T08:11:20;101286.13;;;7.61;100.00
10806;BME280;5455;53.224;6.000;2023-02-22T08:13:47;101285.31;;;7.60;100.00
10806;BME280;5455;53.224;6.000;2023-02-22T08:16:15;101282.41;;;7.65;100.00
10806;BME280;5455;53.224;6.000;2023-02-22T08:18:42;101276.06;;;7.73;100.00
10806;BME280;5455;53.224;6.000;2023-02-22T08:21:08;101264.59;;;7.80;100.00
10806;BME280;5455;53.224;6.000;2023-02-22T08:23:36;101275.22;;;7.82;100.00
10806;BME280;5455;53.224;6.000;2023-02-22T08:26:07;101267.53;;;7.75;100.00
10806;BME280;5455;53.224;6.000;2023-02-22T08:28:34;101271.25;;;7.70;100.00
10806;BME280;5455;53.224;6.000;2023-02-22T08:31:01;101271.91;;;7.67;100.00
10806;BME280;5455;53.224;6.000;2023-02-22T08:33:29;101266.91;;;7.61;100.00
10806;BME280;5455;53.224;6.000;2023-02-22T08:35:57;101253.81;;;7.66;100.00
10806;BME280;5455;53.224;6.000;2023-02-22T08:38:27;101259.00;;;7.68;100.00
10806;BME280;5455;53.224;6.000;2023-02-22T08:40:56;101259.00;;;7.68;100.00
10806;BME280;5455;53.224;6.000;2023-02-22T08:43:24;101263.66;;;7.67;100.00
10806;BME280;5455;53.224;6.000;2023-02-22T08:45:55;101257.22;;;7.72;100.00
10806;BME280;5455;53.224;6.000;2023-02-22T08:48:23;101260.72;;;7.72;100.00
10806;BME280;5455;53.224;6.000;2023-02-22T08:50:50;101256.56;;;7.75;100.00
10806;BME280;5455;53.224;6.000;2023-02-22T08:53:18;101264.91;;;7.78;100.00
10806;BME280;5455;53.224;6.000;2023-02-22T08:55:46;101265.41;;;7.81;100.00
10806;BME280;5455;53.224;6.000;2023-02-22T08:58:13;101261.69;;;7.76;100.00
10806;BME280;5455;53.224;6.000;2023-02-22T09:00:41;101262.16;;;7.78;100.00
10806;BME280;5455;53.224;6.000;2023-02-22T09:03:12;101261.50;;;7.82;100.00
10806;BME280;5455;53.224;6.000;2023-02-22T09:05:41;101258.28;;;7.80;100.00
10806;BME280;5455;53.224;6.000;2023-02-22T09:08:08;101248.44;;;7.78;100.00
10806;BME280;5455;53.224;6.000;2023-02-22T09:10:35;101250.38;;;7.78;100.00
10806;BME280;5455;53.224;6.000;2023-02-22T09:13:03;101250.38;;;7.78;100.00
10806;BME280;5455;53.224;6.000;2023-02-22T09:15:30;101252.34;;;7.78;100.00
10806;BME280;5455;53.224;6.000;2023-02-22T09:17:58;101249.72;;;7.81;100.00
10806;BME280;5455;53.224;6.000;2023-02-22T09:20:26;101248.59;;;7.82;100.00
10806;BME280;5455;53.224;6.000;2023-02-22T09:22:53;101244.19;;;7.90;100.00
10806;BME280;5455;53.224;6.000;2023-02-22T09:25:21;101244.81;;;7.95;100.00
10806;BME280;5455;53.224;6.000;2023-02-22T09:27:50;101239.78;;;7.97;100.00
10806;BME280;5455;53.224;6.000;2023-02-22T09:30:26;101234.44;;;8.01;100.00
10806;BME280;5455;53.224;6.000;2023-02-22T09:33:10;101234.38;;;8.09;100.00
10806;BME280;5455;53.224;6.000;2023-02-22T09:35:38;101226.59;;;8.11;100.00
10806;BME280;5455;53.224;6.000;2023-02-22T09:38:08;101236.31;;;8.09;100.00
10806;BME280;5455;53.224;6.000;2023-02-22T09:40:39;101236.25;;;8.17;100.00
10806;BME280;5455;53.224;6.000;2023-02-22T09:43:20;101244.38;;;8.14;100.00
10806;BME280;5455;53.224;6.000;2023-02-22T09:46:08;101250.56;;;8.02;100.00
10806;BME280;5455;53.224;6.000;2023-02-22T09:51:29;101257.16;;;8.10;100.00
10806;BME280;5455;53.224;6.000;2023-02-22T09:54:03;101259.84;;;8.18;100.00
10806;BME280;5455;53.224;6.000;2023-02-22T09:56:32;101267.78;;;8.20;100.00
10806;BME280;5455;53.224;6.000;2023-02-22T09:59:01;101267.88;;;8.23;100.00
10806;BME280;5455;53.224;6.000;2023-02-22T10:01:41;101256.91;;;8.32;100.00
10806;BME280;5455;53.224;6.000;2023-02-22T10:09:38;101253.41;;;8.64;100.00
10806;BME280;5455;53.224;6.000;2023-02-22T10:18:20;101240.97;;;9.00;100.00
10806;BME280;5455;53.224;6.000;2023-02-22T10:24:06;101231.50;;;9.21;100.00
10806;BME280;5455;53.224;6.000;2023-02-22T10:26:43;101228.91;;;9.37;100.00
10806;BME280;5455;53.224;6.000;2023-02-22T10:29:22;101227.63;;;9.34;100.00
10806;BME280;5455;53.224;6.000;2023-02-22T10:31:59;101225.06;;;9.17;100.00
10806;BME280;5455;53.224;6.000;2023-02-22T10:34:34;101210.28;;;9.10;100.00
10806;BME280;5455;53.224;6.000;2023-02-22T10:37:26;101208.47;;;9.26;100.00
10806;BME280;5455;53.224;6.000;2023-02-22T10:40:32;101199.78;;;9.36;100.00
10806;BME280;5455;53.224;6.000;2023-02-22T10:43:04;101199.34;;;9.46;100.00
10806;BME280;5455;53.224;6.000;2023-02-22T10:45:33;101202.31;;;9.53;100.00
10806;BME280;5455;53.224;6.000;2023-02-22T10:48:06;101200.94;;;9.59;100.00
10806;BME280;5455;53.224;6.000;2023-02-22T10:50:38;101205.19;;;9.57;100.00
10806;BME280;5455;53.224;6.000;2023-02-22T10:53:09;101201.28;;;9.58;100.00
10806;BME280;5455;53.224;6.000;2023-02-22T10:58:58;101190.16;;;9.66;100.00
10806;BME280;5455;53.224;6.000;2023-02-22T11:04:00;101180.75;;;9.55;100.00
10806;BME280;5455;53.224;6.000;2023-02-22T11:06:32;101193.81;;;9.70;100.00
10806;BME280;5455;53.224;6.000;2023-02-22T11:09:20;101191.88;;;9.83;100.00
10806;BME280;5455;53.224;6.000;2023-02-22T11:11:50;101179.94;;;9.79;100.00
10806;BME280;5455;53.224;6.000;2023-02-22T11:14:33;101180.28;;;9.65;100.00
10806;BME280;5455;53.224;6.000;2023-02-22T11:17:00;101179.59;;;9.68;100.00
10806;BME280;5455;53.224;6.000;2023-02-22T11:19:33;101185.22;;;9.72;100.00
10806;BME280;5455;53.224;6.000;2023-02-22T11:24:44;101184.41;;;9.83;100.00
10806;BME280;5455;53.224;6.000;2023-02-22T11:27:42;101179.97;;;9.67;100.00
10806;BME280;5455;53.224;6.000;2023-02-22T11:30:32;101179.72;;;9.60;100.00
10806;BME280;5455;53.224;6.000;2023-02-22T11:33:17;101180.75;;;9.55;100.00
10806;BME280;5455;53.224;6.000;2023-02-22T11:35:50;101171.56;;;9.51;100.00
10806;BME280;5455;53.224;6.000;2023-02-22T11:41:14;101163.31;;;9.63;100.00
10806;BME280;5455;53.224;6.000;2023-02-22T11:43:47;101158.38;;;9.69;100.00
10806;BME280;5455;53.224;6.000;2023-02-22T11:46:21;101148.84;;;9.78;100.00
10806;BME280;5455;53.224;6.000;2023-02-22T11:49:04;101151.69;;;9.94;100.00
10806;BME280;5455;53.224;6.000;2023-02-22T11:51:47;101142.94;;;10.04;100.00
10806;BME280;5455;53.224;6.000;2023-02-22T11:57:43;101142.38;;;9.98;100.00
10806;BME280;5455;53.224;6.000;2023-02-22T12:03:23;101143.31;;;9.90;100.00
10806;BME280;5455;53.224;6.000;2023-02-22T12:09:02;101141.97;;;9.72;100.00
10806;BME280;5455;53.224;6.000;2023-02-22T12:17:00;101155.25;;;9.94;100.00
10806;BME280;5455;53.224;6.000;2023-02-22T12:19:36;101158.25;;;9.89;100.00
10806;BME280;5455;53.224;6.000;2023-02-22T12:22:17;101159.16;;;9.93;100.00
10806;BME280;5455;53.224;6.000;2023-02-22T12:25:26;101167.66;;;9.76;100.00
10806;BME280;5455;53.224;6.000;2023-02-22T12:28:15;101147.59;;;9.76;100.00
10806;BME280;5455;53.224;6.000;2023-02-22T12:31:05;101150.00;;;9.65;100.00
10806;BME280;5455;53.224;6.000;2023-02-22T12:33:49;101154.63;;;9.61;100.00
10806;BME280;5455;53.224;6.000;2023-02-22T12:36:19;101155.88;;;9.64;100.00
10806;BME280;5455;53.224;6.000;2023-02-22T12:38:56;101139.00;;;9.65;100.00
10806;BME280;5455;53.224;6.000;2023-02-22T12:41:39;101137.34;;;9.76;100.00
10806;BME280;5455;53.224;6.000;2023-02-22T12:44:17;101145.28;;;9.90;100.00
10806;BME280;5455;53.224;6.000;2023-02-22T12:46:50;101144.84;;;9.88;100.00
10806;BME280;5455;53.224;6.000;2023-02-22T12:49:21;101138.03;;;9.85;100.00
10806;BME280;5455;53.224;6.000;2023-02-22T13:00:47;101133.16;;;9.67;100.00
10806;BME280;5455;53.224;6.000;2023-02-22T13:06:36;101136.03;;;9.58;100.00
10806;BME280;5455;53.224;6.000;2023-02-22T13:17:36;101125.09;;;9.62;100.00
10806;BME280;5455;53.224;6.000;2023-02-22T13:25:27;101124.06;;;9.78;100.00
10806;BME280;5455;53.224;6.000;2023-02-22T13:30:39;101110.31;;;9.78;100.00
10806;BME280;5455;53.224;6.000;2023-02-22T13:33:30;101112.81;;;9.83;100.00
10806;BME280;5455;53.224;6.000;2023-02-22T13:38:59;101119.47;;;9.70;100.00
10806;BME280;5455;53.224;6.000;2023-02-22T13:47:47;101109.75;;;9.61;100.00
10806;BME280;5455;53.224;6.000;2023-02-22T13:52:55;101116.53;;;9.63;100.00
10806;BME280;5455;53.224;6.000;2023-02-22T13:55:28;101121.44;;;9.70;100.00
10806;BME280;5455;53.224;6.000;2023-02-22T14:00:52;101114.44;;;9.72;100.00
10806;BME280;5455;53.224;6.000;2023-02-22T14:03:31;101105.50;;;9.75;100.00
10806;BME280;5455;53.224;6.000;2023-02-22T14:06:03;101112.13;;;9.74;100.00
10806;BME280;5455;53.224;6.000;2023-02-22T14:11:01;101112.94;;;9.75;100.00
10806;BME280;5455;53.224;6.000;2023-02-22T14:16:28;101121.66;;;9.77;100.00
10806;BME280;5455;53.224;6.000;2023-02-22T14:19:04;101122.00;;;9.75;100.00
10806;BME280;5455;53.224;6.000;2023-02-22T14:21:34;101123.16;;;9.74;100.00
10806;BME280;5455;53.224;6.000;2023-02-22T14:24:06;101121.78;;;9.68;100.00
10806;BME280;5455;53.224;6.000;2023-02-22T14:26:37;101116.03;;;9.73;100.00
10806;BME280;5455;53.224;6.000;2023-02-22T14:34:12;101116.25;;;9.80;100.00
10806;BME280;5455;53.224;6.000;2023-02-22T14:36:53;101113.75;;;9.75;100.00
10806;BME280;5455;53.224;6.000;2023-02-22T14:39:29;101112.69;;;9.80;100.00
10806;BME280;5455;53.224;6.000;2023-02-22T14:44:49;101100.44;;;9.65;100.00
10806;BME280;5455;53.224;6.000;2023-02-22T14:47:23;101098.75;;;9.61;100.00
10806;BME280;5455;53.224;6.000;2023-02-22T14:50:03;101093.91;;;9.70;100.00
10806;BME280;5455;53.224;6.000;2023-02-22T14:52:35;101085.41;;;9.75;100.00
10806;BME280;5455;53.224;6.000;2023-02-22T14:57:50;101071.94;;;9.85;100.00
10806;BME280;5455;53.224;6.000;2023-02-22T15:00:49;101076.09;;;9.79;100.00
10806;BME280;5455;53.224;6.000;2023-02-22T15:03:33;101072.31;;;9.84;100.00
10806;BME280;5455;53.224;6.000;2023-02-22T15:06:26;101074.25;;;9.83;100.00
10806;BME280;5455;53.224;6.000;2023-02-22T15:09:07;101081.50;;;9.76;100.00
10806;BME280;5455;53.224;6.000;2023-02-22T15:11:35;101080.94;;;9.70;100.00
10806;BME280;5455;53.224;6.000;2023-02-22T15:14:17;101086.69;;;9.65;100.00
10806;BME280;5455;53.224;6.000;2023-02-22T15:16:54;101098.38;;;9.62;100.00
10806;BME280;5455;53.224;6.000;2023-02-22T15:19:29;101096.81;;;9.61;100.00
10806;BME280;5455;53.224;6.000;2023-02-22T15:21:58;101094.50;;;9.63;100.00
10806;BME280;5455;53.224;6.000;2023-02-22T15:24:29;101094.59;;;9.67;100.00
10806;BME280;5455;53.224;6.000;2023-02-22T15:27:03;101081.66;;;9.67;100.00
10806;BME280;5455;53.224;6.000;2023-02-22T15:29:35;101088.28;;;9.66;100.00
10806;BME280;5455;53.224;6.000;2023-02-22T15:34:53;101084.63;;;9.50;100.00